Time;durP1;ratioP1;P1;durP2;ratioP2;P2;SDS_P1;SDS_P2;PMS_P1;PMS_P2;Temp;Humidity;BMP_temperature;BMP_pressure;BME280_temperature;BME280_humidity;BME280_pressure;Samples;Min_cycle;Max_cycle;Signal;HPM_P1;HPM_P2
2023/04/09 00:01:57;;;;;;;2.10;2.10;;;18.10;64.00;;;;;;5126403;27;43517;-76
2023/04/09 00:04:25;;;;;;;2.10;2.10;;;18.10;64.10;;;;;;5091614;27;43646;-76
2023/04/09 00:06:54;;;;;;;1.97;1.97;;;18.10;64.10;;;;;;5096059;27;45930;-76
2023/04/09 00:09:22;;;;;;;2.03;2.03;;;18.00;64.20;;;;;;5114680;27;43410;-76
2023/04/09 00:11:50;;;;;;;2.20;2.20;;;18.10;64.20;;;;;;5108484;27;43426;-75
2023/04/09 00:14:18;;;;;;;2.00;2.00;;;18.20;63.90;;;;;;5105803;27;43437;-75
2023/04/09 00:16:46;;;;;;;2.30;2.30;;;18.20;63.50;;;;;;5118583;27;43935;-78
2023/04/09 00:19:14;;;;;;;2.00;1.90;;;18.20;63.30;;;;;;5119410;27;43392;-76
2023/04/09 00:21:42;;;;;;;1.90;1.90;;;18.20;63.50;;;;;;5120054;27;43534;-78
2023/04/09 00:24:12;;;;;;;2.20;2.20;;;18.20;63.70;;;;;;5121568;27;43455;-76
2023/04/09 00:26:39;;;;;;;2.33;2.33;;;18.20;63.70;;;;;;5120042;27;44350;-77
2023/04/09 00:29:07;;;;;;;2.00;2.00;;;18.20;63.50;;;;;;5116764;27;43402;-77
2023/04/09 00:31:35;;;;;;;2.40;2.30;;;18.20;63.70;;;;;;5092283;27;43556;-75
2023/04/09 00:34:04;;;;;;;2.00;2.00;;;18.20;63.80;;;;;;5100570;27;43488;-75
2023/04/09 00:36:32;;;;;;;2.23;2.10;;;18.10;63.80;;;;;;5119753;27;43600;-76
2023/04/09 00:39:00;;;;;;;2.20;2.20;;;18.10;63.90;;;;;;5096239;27;44956;-75
2023/04/09 00:41:29;;;;;;;2.20;2.20;;;18.10;63.80;;;;;;5101192;27;43363;-75
2023/04/09 00:43:57;;;;;;;1.80;1.80;;;18.10;63.80;;;;;;5096591;27;43481;-76
2023/04/09 00:46:25;;;;;;;2.20;2.20;;;18.10;63.90;;;;;;5115782;27;43916;-79
2023/04/09 00:48:53;;;;;;;2.07;2.07;;;18.10;64.60;;;;;;5118286;27;43398;-78
2023/04/09 00:51:21;;;;;;;2.13;2.13;;;18.10;64.00;;;;;;5098914;27;43498;-79
2023/04/09 00:53:49;;;;;;;2.17;2.17;;;18.10;64.10;;;;;;5117042;27;43399;-78
2023/04/09 00:56:17;;;;;;;2.43;2.33;;;18.10;63.90;;;;;;5124667;27;43745;-77
2023/04/09 00:58:47;;;;;;;2.60;2.60;;;18.20;63.50;;;;;;5105580;27;45101;-77
2023/04/09 01:01:15;;;;;;;2.40;2.40;;;18.30;63.20;;;;;;5106094;27;43450;-76
2023/04/09 01:03:43;;;;;;;2.40;2.40;;;18.30;62.90;;;;;;5092359;27;43594;-76
2023/04/09 01:06:22;;;;;;;2.50;2.50;;;18.30;62.90;;;;;;5101724;27;45715;-77
2023/04/09 01:08:56;;;;;;;2.60;2.60;;;18.30;63.20;;;;;;5100904;28;45328;-77
2023/04/09 01:11:28;;;;;;;2.33;2.33;;;18.30;63.20;;;;;;5121412;27;43305;-76
2023/04/09 01:14:01;;;;;;;2.30;2.30;;;18.30;63.10;;;;;;5118722;27;43363;-76
2023/04/09 01:16:29;;;;;;;2.50;2.50;;;18.20;63.20;;;;;;5102812;27;45151;-78
2023/04/09 01:18:59;;;;;;;2.13;2.13;;;18.20;63.40;;;;;;5104826;27;44685;-78
2023/04/09 01:21:30;;;;;;;2.00;2.00;;;18.20;63.50;;;;;;5111647;27;43441;-82
2023/04/09 01:24:02;;;;;;;2.50;2.50;;;18.20;63.70;;;;;;5104599;28;43618;-79
2023/04/09 01:26:46;;;;;;;2.10;2.10;;;18.10;63.50;;;;;;5102093;27;44093;-79
2023/04/09 01:29:15;;;;;;;2.30;2.30;;;18.10;63.50;;;;;;5104268;28;45367;-79
2023/04/09 01:31:46;;;;;;;2.30;2.30;;;18.10;63.60;;;;;;5098300;27;43450;-76
2023/04/09 01:34:14;;;;;;;2.50;2.50;;;18.10;63.60;;;;;;5115353;27;43433;-77
2023/04/09 01:36:42;;;;;;;2.13;2.13;;;18.10;63.80;;;;;;5095731;27;46183;-77
2023/04/09 01:39:11;;;;;;;2.33;2.33;;;18.10;63.70;;;;;;5097338;28;45031;-77
2023/04/09 01:41:39;;;;;;;2.30;2.30;;;18.20;63.60;;;;;;5095217;27;43407;-79
2023/04/09 01:44:07;;;;;;;2.30;2.20;;;18.30;63.30;;;;;;5096348;27;43562;-76
2023/04/09 01:46:36;;;;;;;2.20;2.20;;;18.30;63.00;;;;;;5119028;27;43834;-76
2023/04/09 01:49:04;;;;;;;2.00;2.00;;;18.30;63.00;;;;;;5120121;27;43473;-79
2023/04/09 01:51:32;;;;;;;2.07;2.07;;;18.20;63.10;;;;;;5123699;27;43399;-77
2023/04/09 01:54:00;;;;;;;2.70;2.53;;;18.20;63.20;;;;;;5104019;27;43443;-81
2023/04/09 01:56:28;;;;;;;2.40;2.40;;;18.20;63.00;;;;;;5099910;27;45430;-78
2023/04/09 01:58:56;;;;;;;2.20;2.20;;;18.20;63.10;;;;;;5102560;28;44692;-76
2023/04/09 02:01:27;;;;;;;2.20;2.20;;;18.20;63.20;;;;;;5088109;27;43521;-79
2023/04/09 02:03:58;;;;;;;2.50;2.50;;;18.20;63.30;;;;;;5105649;27;43448;-77
2023/04/09 02:06:31;;;;;;;2.30;2.30;;;18.10;63.50;;;;;;5099916;27;45621;-77
2023/04/09 02:09:00;;;;;;;2.30;2.30;;;18.10;63.50;;;;;;5091055;27;44827;-77
2023/04/09 02:11:29;;;;;;;1.90;1.90;;;18.10;63.20;;;;;;5107118;27;43504;-78
2023/04/09 02:13:57;;;;;;;2.20;2.20;;;18.20;63.50;;;;;;5120308;27;43495;-78
2023/04/09 02:16:25;;;;;;;2.30;2.30;;;18.10;63.50;;;;;;5086975;27;46173;-76
2023/04/09 02:18:53;;;;;;;2.47;2.47;;;18.10;63.50;;;;;;5116623;27;43403;-77
2023/04/09 02:21:23;;;;;;;2.57;2.57;;;18.10;63.70;;;;;;5115328;27;43431;-77
2023/04/09 02:23:51;;;;;;;2.70;2.60;;;18.10;63.60;;;;;;5093007;27;43552;-77
2023/04/09 02:26:19;;;;;;;2.63;2.63;;;18.20;63.30;;;;;;5089981;28;46398;-78
2023/04/09 02:28:47;;;;;;;2.50;2.50;;;18.20;63.00;;;;;;5098451;27;45203;-80
2023/04/09 02:31:15;;;;;;;2.30;2.30;;;18.30;62.90;;;;;;5108903;27;43463;-79
2023/04/09 02:33:43;;;;;;;2.40;2.40;;;18.30;63.00;;;;;;5121190;27;43478;-81
2023/04/09 02:36:12;;;;;;;2.20;2.17;;;18.20;63.00;;;;;;5093774;28;45743;-80
2023/04/09 02:38:42;;;;;;;2.50;2.50;;;18.20;62.90;;;;;;5122531;27;43352;-80
2023/04/09 02:41:10;;;;;;;2.27;2.23;;;18.20;62.90;;;;;;5102061;27;43388;-79
2023/04/09 02:43:38;;;;;;;2.10;2.10;;;18.20;63.20;;;;;;5099288;28;43593;-78
2023/04/09 02:46:07;;;;;;;2.63;2.53;;;18.20;63.30;;;;;;5117664;27;43880;-78
2023/04/09 02:48:36;;;;;;;2.27;2.27;;;18.10;63.30;;;;;;5090614;27;43513;-83
2023/04/09 02:51:05;;;;;;;2.20;2.20;;;18.10;63.50;;;;;;5101594;27;43353;-83
2023/04/09 02:53:33;;;;;;;2.53;2.53;;;18.10;63.30;;;;;;5078087;28;43599;-83
2023/04/09 02:56:03;;;;;;;2.33;2.23;;;18.10;63.20;;;;;;5098991;27;43754;-80
2023/04/09 02:58:31;;;;;;;2.30;2.30;;;18.10;63.40;;;;;;5093377;27;45180;-82
2023/04/09 03:00:59;;;;;;;2.20;2.20;;;18.10;63.50;;;;;;5082752;27;43458;-81
2023/04/09 03:03:27;;;;;;;2.60;2.60;;;18.10;63.50;;;;;;5104845;27;43367;-81
2023/04/09 03:05:55;;;;;;;2.20;2.20;;;18.00;63.50;;;;;;5095814;27;43933;-81
2023/04/09 03:08:23;;;;;;;2.50;2.50;;;18.10;63.50;;;;;;5079011;27;45240;-83
2023/04/09 03:10:51;;;;;;;2.10;2.10;;;18.10;63.40;;;;;;5081733;27;43432;-82
2023/04/09 03:13:21;;;;;;;2.23;2.23;;;18.10;63.40;;;;;;5087835;27;43622;-83
2023/04/09 03:15:51;;;;;;;2.23;2.23;;;18.10;63.40;;;;;;5074239;27;45800;-82
2023/04/09 03:18:19;;;;;;;2.23;2.23;;;18.10;63.40;;;;;;5070921;27;45048;-82
2023/04/09 03:20:47;;;;;;;2.30;2.30;;;18.00;63.40;;;;;;5101861;27;43476;-82
2023/04/09 03:23:16;;;;;;;2.40;2.40;;;18.10;63.30;;;;;;5077038;27;44012;-82
2023/04/09 03:25:47;;;;;;;2.60;2.60;;;18.20;63.00;;;;;;5083051;27;45657;-82
2023/04/09 03:28:17;;;;;;;2.20;2.20;;;18.30;63.40;;;;;;5081202;27;45245;-80
2023/04/09 03:30:50;;;;;;;2.40;2.40;;;18.40;62.50;;;;;;5089832;27;43360;-82
2023/04/09 03:33:19;;;;;;;2.40;2.40;;;18.40;62.30;;;;;;5090349;27;43580;-84
2023/04/09 03:35:55;;;;;;;2.20;2.13;;;18.30;62.50;;;;;;5085868;27;46082;-82
2023/04/09 03:38:33;;;;;;;2.43;2.43;;;18.30;62.50;;;;;;5078075;27;44908;-83
2023/04/09 03:41:07;;;;;;;2.20;2.20;;;18.30;62.50;;;;;;5081374;27;43512;-82
2023/04/09 03:43:35;;;;;;;2.37;2.37;;;18.30;62.60;;;;;;5091261;27;43420;-82
2023/04/09 03:46:12;;;;;;;2.23;2.23;;;18.20;62.70;;;;;;5081668;27;46729;-81
2023/04/09 03:48:41;;;;;;;2.10;2.10;;;18.20;62.80;;;;;;5078648;27;43483;-82
2023/04/09 03:51:11;;;;;;;2.10;2.10;;;18.20;62.90;;;;;;5095916;27;43415;-82
2023/04/09 03:53:41;;;;;;;2.70;2.60;;;18.20;62.80;;;;;;5074409;27;43508;-82
2023/04/09 03:56:09;;;;;;;2.20;2.20;;;18.20;62.80;;;;;;5098453;27;44095;-81
2023/04/09 03:58:38;;;;;;;2.20;2.20;;;18.20;62.90;;;;;;5087717;27;45010;-83
2023/04/09 04:01:08;;;;;;;2.33;2.33;;;18.10;63.00;;;;;;5082777;27;43590;-82
2023/04/09 04:03:43;;;;;;;2.10;2.10;;;18.10;63.10;;;;;;5079677;27;43495;-81
2023/04/09 04:06:20;;;;;;;2.37;2.37;;;18.10;63.00;;;;;;5076167;27;46290;-82
2023/04/09 04:08:59;;;;;;;2.17;2.17;;;18.10;62.80;;;;;;5076211;27;43354;-82
2023/04/09 04:11:37;;;;;;;1.97;1.97;;;18.10;62.80;;;;;;5086038;27;43309;-82
2023/04/09 04:14:05;;;;;;;2.27;2.27;;;18.10;63.00;;;;;;5082571;27;43604;-82
2023/04/09 04:16:33;;;;;;;2.43;2.43;;;18.10;63.10;;;;;;5086187;27;45875;-82
2023/04/09 04:19:05;;;;;;;2.37;2.37;;;18.10;63.10;;;;;;5083111;27;43602;-82
2023/04/09 04:21:40;;;;;;;2.30;2.20;;;18.10;63.00;;;;;;5086664;27;43427;-82
2023/04/09 04:24:08;;;;;;;2.27;2.27;;;18.20;62.80;;;;;;5086652;27;43646;-81
2023/04/09 04:26:36;;;;;;;2.43;2.43;;;18.30;62.60;;;;;;5078726;27;45675;-82
2023/04/09 04:29:04;;;;;;;2.33;2.33;;;18.40;62.20;;;;;;5091741;27;44856;-82
2023/04/09 04:31:44;;;;;;;2.20;2.20;;;18.30;61.70;;;;;;5084812;27;43434;-82
2023/04/09 04:34:15;;;;;;;2.03;2.03;;;18.30;62.00;;;;;;5087683;27;43444;-84
2023/04/09 04:36:47;;;;;;;2.20;2.20;;;18.30;62.30;;;;;;5082256;27;44210;-83
2023/04/09 04:39:16;;;;;;;2.10;2.10;;;18.30;62.00;;;;;;5078109;27;44891;-82
2023/04/09 04:41:52;;;;;;;2.23;2.23;;;18.20;62.00;;;;;;5078189;27;43372;-82
2023/04/09 04:44:23;;;;;;;2.03;2.03;;;18.20;62.30;;;;;;5076376;27;43538;-82
2023/04/09 04:46:58;;;;;;;2.20;2.20;;;18.20;62.50;;;;;;5090077;27;44222;-82
2023/04/09 04:49:28;;;;;;;2.60;2.60;;;18.10;62.60;;;;;;5092407;27;44530;-82
2023/04/09 04:51:56;;;;;;;2.10;2.10;;;18.10;62.60;;;;;;5077857;27;43408;-82
2023/04/09 04:54:24;;;;;;;2.30;2.30;;;18.10;62.30;;;;;;5076908;27;43898;-82
2023/04/09 04:56:56;;;;;;;2.20;2.20;;;18.10;62.50;;;;;;5072967;28;45930;-82
2023/04/09 04:59:50;;;;;;;1.93;1.93;;;18.10;62.70;;;;;;5098843;27;44219;-81
2023/04/09 05:02:19;;;;;;;2.53;2.53;;;18.10;62.90;;;;;;5075400;28;43948;-83
2023/04/09 05:04:58;;;;;;;2.50;2.50;;;18.10;62.80;;;;;;5087966;27;43662;-83
2023/04/09 05:07:34;;;;;;;2.40;2.40;;;18.10;62.50;;;;;;5090056;27;44144;-82
2023/04/09 05:10:02;;;;;;;2.23;2.23;;;18.10;62.60;;;;;;5083874;27;45080;-81
2023/04/09 05:12:37;;;;;;;2.33;2.33;;;18.10;62.70;;;;;;5089444;27;44035;-82
2023/04/09 05:15:07;;;;;;;2.30;2.30;;;18.10;62.80;;;;;;5083344;27;43599;-81
2023/04/09 05:17:37;;;;;;;2.43;2.43;;;18.00;62.80;;;;;;5084673;27;44225;-82
2023/04/09 05:20:09;;;;;;;2.30;2.30;;;18.10;62.90;;;;;;5083075;27;44688;-81
2023/04/09 05:22:53;;;;;;;2.50;2.50;;;18.20;62.60;;;;;;5088411;27;43476;-81
2023/04/09 05:25:27;;;;;;;2.77;2.67;;;18.30;62.30;;;;;;5086053;28;43557;-83
2023/04/09 05:27:56;;;;;;;2.30;2.30;;;18.30;62.00;;;;;;5083152;27;45814;-81
2023/04/09 05:30:25;;;;;;;2.30;2.30;;;18.30;61.80;;;;;;5076540;27;45066;-82
2023/04/09 05:32:54;;;;;;;2.37;2.37;;;18.30;62.20;;;;;;5091303;27;43806;-83
2023/04/09 05:35:28;;;;;;;2.30;2.30;;;18.30;62.10;;;;;;5099900;27;43498;-82
2023/04/09 05:37:58;;;;;;;2.20;2.20;;;18.30;62.00;;;;;;5095521;27;46277;-82
2023/04/09 05:40:26;;;;;;;2.13;2.13;;;18.30;63.00;;;;;;5080575;27;44703;-82
2023/04/09 05:42:55;;;;;;;2.40;2.40;;;18.20;62.30;;;;;;5091119;27;44098;-82
2023/04/09 05:45:33;;;;;;;2.40;2.40;;;18.20;62.50;;;;;;5080631;27;43500;-82
2023/04/09 05:48:01;;;;;;;2.23;2.23;;;18.20;62.50;;;;;;5082702;27;45648;-81
2023/04/09 05:50:31;;;;;;;2.40;2.40;;;18.20;62.40;;;;;;5082876;27;44838;-83
2023/04/09 05:53:15;;;;;;;2.20;2.20;;;18.20;62.40;;;;;;5078994;27;43320;-82
2023/04/09 05:55:43;;;;;;;2.00;2.00;;;18.20;62.50;;;;;;5076543;28;43554;-82
2023/04/09 05:58:14;;;;;;;2.20;2.20;;;18.10;62.50;;;;;;5078783;27;46160;-83
2023/04/09 06:00:42;;;;;;;2.50;2.50;;;18.10;62.60;;;;;;5079449;28;44655;-80
2023/04/09 06:03:10;;;;;;;2.30;2.30;;;18.10;62.70;;;;;;5103246;27;43441;-82
2023/04/09 06:05:42;;;;;;;2.40;2.40;;;18.10;62.50;;;;;;5075087;28;43416;-81
2023/04/09 06:08:10;;;;;;;2.20;2.20;;;18.20;62.20;;;;;;5080482;28;45977;-80
2023/04/09 06:10:38;;;;;;;2.40;2.40;;;18.30;62.00;;;;;;5081268;27;44914;-81
2023/04/09 06:13:08;;;;;;;2.20;2.20;;;18.30;62.00;;;;;;5094927;27;43465;-81
2023/04/09 06:15:37;;;;;;;2.40;2.40;;;18.20;62.10;;;;;;5097427;27;43481;-81
2023/04/09 06:18:05;;;;;;;2.50;2.50;;;18.20;62.20;;;;;;5087227;27;45928;-81
2023/04/09 06:20:33;;;;;;;2.57;2.57;;;18.20;62.00;;;;;;5094704;27;44417;-81
2023/04/09 06:23:03;;;;;;;2.20;2.20;;;18.20;62.10;;;;;;5080908;27;43447;-82
2023/04/09 06:25:31;;;;;;;2.20;2.20;;;18.20;62.40;;;;;;5080581;27;43624;-82
2023/04/09 06:27:59;;;;;;;2.23;2.23;;;18.10;62.50;;;;;;5094357;27;43611;-82
2023/04/09 06:30:27;;;;;;;2.30;2.30;;;18.10;62.50;;;;;;5092086;27;43469;-82
2023/04/09 06:32:55;;;;;;;2.17;2.17;;;18.10;62.50;;;;;;5084115;27;43431;-81
2023/04/09 06:35:23;;;;;;;2.20;2.20;;;18.10;62.30;;;;;;5077304;27;43445;-82
2023/04/09 06:37:51;;;;;;;2.50;2.50;;;18.10;63.20;;;;;;5079438;27;46358;-81
2023/04/09 06:40:22;;;;;;;2.30;2.30;;;18.10;62.50;;;;;;5094523;27;43379;-80
2023/04/09 06:42:50;;;;;;;2.47;2.47;;;18.10;62.60;;;;;;5077492;27;43458;-79
2023/04/09 06:45:24;;;;;;;2.37;2.37;;;18.00;62.70;;;;;;5088173;27;43889;-79
2023/04/09 06:47:52;;;;;;;2.30;2.30;;;18.10;62.70;;;;;;5081924;27;45901;-80
2023/04/09 06:50:23;;;;;;;2.20;2.20;;;18.10;62.60;;;;;;5075520;27;44761;-78
2023/04/09 06:52:51;;;;;;;2.37;2.30;;;18.10;62.70;;;;;;5103955;27;43530;-79
2023/04/09 06:55:21;;;;;;;2.40;2.30;;;18.10;62.80;;;;;;5080487;27;43507;-79
2023/04/09 06:57:49;;;;;;;2.60;2.50;;;18.00;62.80;;;;;;5084386;27;44990;-77
2023/04/09 07:00:21;;;;;;;2.20;2.20;;;18.00;62.80;;;;;;5097472;27;43502;-76
2023/04/09 07:02:52;;;;;;;2.30;2.30;;;18.00;62.70;;;;;;5080756;27;43383;-78
2023/04/09 07:05:20;;;;;;;2.33;2.33;;;18.10;62.50;;;;;;5079874;27;43487;-78
2023/04/09 07:07:51;;;;;;;2.30;2.30;;;18.20;62.20;;;;;;5100721;27;43857;-77
2023/04/09 07:10:19;;;;;;;2.50;2.50;;;18.30;61.90;;;;;;5104317;27;43406;-77
2023/04/09 07:12:48;;;;;;;2.47;2.40;;;18.30;61.80;;;;;;5111886;27;43340;-77
2023/04/09 07:15:16;;;;;;;2.50;2.50;;;18.30;62.00;;;;;;5093535;27;43519;-79
2023/04/09 07:17:44;;;;;;;2.13;2.10;;;18.20;62.00;;;;;;5103442;27;44190;-77
2023/04/09 07:20:15;;;;;;;2.20;2.20;;;18.20;62.00;;;;;;5097695;27;44053;-78
2023/04/09 07:22:45;;;;;;;2.40;2.40;;;18.20;62.20;;;;;;5097652;27;43438;-77
2023/04/09 07:25:13;;;;;;;2.10;2.10;;;18.20;62.50;;;;;;5080188;27;43511;-76
2023/04/09 07:27:42;;;;;;;2.40;2.40;;;18.10;62.50;;;;;;5080937;27;45569;-77
2023/04/09 07:30:12;;;;;;;2.00;2.00;;;18.10;62.70;;;;;;5078527;27;44973;-78
2023/04/09 07:32:40;;;;;;;2.20;2.20;;;18.00;62.60;;;;;;5094904;27;43355;-76
2023/04/09 07:35:10;;;;;;;2.60;2.60;;;18.10;62.70;;;;;;5095392;27;43375;-78
2023/04/09 07:37:38;;;;;;;2.40;2.40;;;18.00;62.70;;;;;;5098619;27;44127;-76
2023/04/09 07:40:08;;;;;;;2.40;2.40;;;18.00;62.80;;;;;;5077383;27;45060;-79
2023/04/09 07:42:37;;;;;;;2.50;2.50;;;18.00;62.90;;;;;;5081666;27;43446;-77
2023/04/09 07:45:06;;;;;;;2.40;2.40;;;18.00;63.00;;;;;;5095668;27;43721;-77
2023/04/09 07:47:36;;;;;;;2.20;2.20;;;18.00;63.00;;;;;;5096872;27;43684;-77
2023/04/09 07:50:05;;;;;;;2.43;2.43;;;18.00;62.80;;;;;;5096857;27;43488;-79
2023/04/09 07:52:35;;;;;;;2.60;2.50;;;18.00;62.90;;;;;;5081416;27;43548;-78
2023/04/09 07:55:04;;;;;;;2.50;2.50;;;18.00;63.00;;;;;;5082990;27;43562;-78
2023/04/09 07:57:32;;;;;;;2.70;2.60;;;18.00;63.00;;;;;;5101004;27;43708;-77
2023/04/09 08:00:00;;;;;;;2.60;2.60;;;18.00;63.10;;;;;;5098193;27;43427;-81
2023/04/09 08:02:28;;;;;;;2.53;2.53;;;18.00;62.90;;;;;;5099711;27;43437;-77
2023/04/09 08:04:58;;;;;;;2.40;2.40;;;18.10;62.70;;;;;;5088772;27;43419;-77
2023/04/09 08:07:27;;;;;;;2.80;2.80;;;18.10;62.40;;;;;;5082826;28;45298;-77
2023/04/09 08:09:55;;;;;;;2.60;2.50;;;18.20;63.00;;;;;;5112537;27;43534;-76
2023/04/09 08:12:23;;;;;;;2.30;2.30;;;18.20;62.50;;;;;;5105233;27;43495;-76
2023/04/09 08:14:51;;;;;;;2.40;2.30;;;18.10;62.50;;;;;;5089580;27;43474;-77
2023/04/09 08:17:19;;;;;;;2.43;2.43;;;18.10;62.40;;;;;;5094346;27;46284;-76
2023/04/09 08:19:48;;;;;;;2.40;2.40;;;18.20;62.50;;;;;;5083335;27;45302;-78
2023/04/09 08:22:17;;;;;;;2.70;2.60;;;18.10;62.50;;;;;;5083784;28;43396;-77
2023/04/09 08:24:50;;;;;;;2.40;2.40;;;18.10;62.60;;;;;;5103649;27;43538;-77
2023/04/09 08:27:18;;;;;;;2.50;2.50;;;18.10;62.70;;;;;;5099050;27;44281;-77
2023/04/09 08:29:46;;;;;;;2.67;2.67;;;18.10;62.90;;;;;;5075440;27;45189;-77
2023/04/09 08:32:16;;;;;;;2.50;2.50;;;18.00;62.70;;;;;;5108465;27;43490;-75
2023/04/09 08:34:46;;;;;;;2.30;2.30;;;18.00;62.60;;;;;;5106154;27;43434;-79
2023/04/09 08:37:15;;;;;;;2.60;2.60;;;18.10;62.90;;;;;;5086765;27;46019;-79
2023/04/09 08:39:46;;;;;;;2.67;2.57;;;18.00;62.90;;;;;;5086878;27;45023;-78
2023/04/09 08:42:15;;;;;;;2.47;2.47;;;18.00;63.00;;;;;;5084886;27;43487;-75
2023/04/09 08:44:43;;;;;;;3.10;2.90;;;18.00;63.00;;;;;;5108600;27;43426;-76
2023/04/09 08:47:11;;;;;;;3.23;2.90;;;18.00;62.80;;;;;;5091658;27;45405;-76
2023/04/09 08:49:40;;;;;;;3.63;3.33;;;18.10;62.60;;;;;;5091214;27;45355;-78
2023/04/09 08:52:09;;;;;;;6.53;3.93;;;18.20;62.40;;;;;;5107083;27;43439;-77
2023/04/09 08:54:39;;;;;;;8.93;5.03;;;18.20;62.30;;;;;;5093471;27;43410;-78
2023/04/09 08:57:09;;;;;;;7.17;4.50;;;18.20;62.20;;;;;;5101912;27;43837;-76
2023/04/09 08:59:37;;;;;;;6.87;4.90;;;18.10;62.40;;;;;;5108361;27;43422;-78
2023/04/09 09:02:09;;;;;;;10.97;4.57;;;18.20;62.40;;;;;;5097742;27;43412;-79
2023/04/09 09:04:46;;;;;;;6.13;4.70;;;18.10;61.80;;;;;;5083776;28;43514;-76
2023/04/09 09:07:14;;;;;;;5.23;4.20;;;18.10;62.00;;;;;;5085899;27;45366;-79
2023/04/09 09:09:55;;;;;;;4.83;4.33;;;18.10;62.30;;;;;;5117063;27;45084;-79
2023/04/09 09:12:34;;;;;;;6.90;4.50;;;18.10;62.50;;;;;;5111962;27;43455;-75
2023/04/09 09:15:03;;;;;;;5.90;4.53;;;18.10;62.70;;;;;;5077504;27;43558;-75
2023/04/09 09:17:32;;;;;;;4.60;4.10;;;18.10;62.50;;;;;;5101017;27;43916;-76
2023/04/09 09:20:01;;;;;;;4.77;4.30;;;18.20;62.30;;;;;;5073731;27;44390;-76
2023/04/09 09:22:29;;;;;;;5.17;4.60;;;18.30;62.20;;;;;;5079145;27;43430;-77
2023/04/09 09:24:57;;;;;;;4.93;4.13;;;18.20;62.20;;;;;;5099634;27;43355;-76
2023/04/09 09:27:35;;;;;;;4.70;4.30;;;18.20;62.30;;;;;;5080200;27;45697;-77
2023/04/09 09:30:04;;;;;;;5.27;4.70;;;18.20;62.50;;;;;;5084290;27;44935;-77
2023/04/09 09:32:32;;;;;;;7.43;4.90;;;18.20;62.40;;;;;;5104684;27;43411;-76
2023/04/09 09:35:02;;;;;;;4.90;4.50;;;18.20;62.50;;;;;;5101212;27;43427;-79
2023/04/09 09:37:30;;;;;;;4.83;4.43;;;18.20;62.70;;;;;;5088175;27;45607;-77
2023/04/09 09:39:59;;;;;;;5.40;5.03;;;18.10;62.10;;;;;;5081756;27;44333;-76
2023/04/09 09:42:27;;;;;;;6.23;5.63;;;18.10;61.60;;;;;;5086106;27;43487;-77
2023/04/09 09:44:57;;;;;;;5.80;5.33;;;18.10;60.30;;;;;;5078944;27;43456;-79
2023/04/09 09:47:26;;;;;;;5.73;5.23;;;18.10;61.20;;;;;;5083045;27;46304;-76
2023/04/09 09:49:56;;;;;;;4.83;4.53;;;18.10;61.40;;;;;;5075674;27;43383;-75
2023/04/09 09:52:26;;;;;;;5.23;4.83;;;18.10;61.60;;;;;;5079949;27;43449;-75
2023/04/09 09:54:54;;;;;;;6.00;5.40;;;18.10;61.70;;;;;;5080688;28;43592;-76
2023/04/09 09:57:23;;;;;;;5.10;4.80;;;18.10;61.80;;;;;;5083901;27;46315;-75
2023/04/09 09:59:53;;;;;;;5.60;5.20;;;18.10;60.80;;;;;;5107351;27;43488;-76
2023/04/09 10:02:25;;;;;;;5.47;5.00;;;18.10;60.80;;;;;;5085193;27;43897;-75
2023/04/09 10:04:54;;;;;;;5.33;4.93;;;18.20;60.90;;;;;;5106494;27;43460;-77
2023/04/09 10:07:22;;;;;;;5.13;4.73;;;18.30;61.10;;;;;;5084753;27;44086;-75
2023/04/09 10:09:51;;;;;;;5.40;5.00;;;18.30;61.10;;;;;;5083659;27;44680;-76
2023/04/09 10:12:21;;;;;;;5.43;4.90;;;18.20;61.20;;;;;;5085582;27;43487;-76
2023/04/09 10:14:49;;;;;;;6.17;4.80;;;18.20;62.00;;;;;;5089120;27;43528;-76
2023/04/09 10:17:17;;;;;;;5.10;4.70;;;18.20;61.00;;;;;;5082475;27;44586;-77
2023/04/09 10:19:52;;;;;;;4.97;4.57;;;18.20;61.00;;;;;;5086942;27;44915;-77
2023/04/09 10:22:21;;;;;;;5.13;4.80;;;18.20;61.20;;;;;;5102634;27;43446;-76
2023/04/09 10:24:50;;;;;;;4.90;4.50;;;18.20;61.30;;;;;;5101941;27;43437;-80
2023/04/09 10:27:18;;;;;;;4.60;4.30;;;18.10;61.60;;;;;;5075160;27;45987;-74
2023/04/09 10:29:47;;;;;;;4.67;4.37;;;18.10;61.40;;;;;;5078979;27;44980;-76
2023/04/09 10:32:19;;;;;;;4.60;4.30;;;18.10;61.50;;;;;;5078755;27;43501;-76
2023/04/09 10:34:49;;;;;;;4.50;4.17;;;18.10;62.50;;;;;;5104955;27;43364;-75
2023/04/09 10:37:21;;;;;;;4.40;4.20;;;18.10;61.90;;;;;;5099646;27;43615;-79
2023/04/09 10:39:51;;;;;;;4.30;4.00;;;18.10;61.90;;;;;;5097426;27;44127;-75
2023/04/09 10:42:23;;;;;;;5.10;4.73;;;18.10;62.20;;;;;;5070935;27;43368;-78
2023/04/09 10:45:05;;;;;;;4.33;4.03;;;18.10;62.00;;;;;;5083643;27;43474;-78
2023/04/09 10:47:33;;;;;;;4.47;4.17;;;18.20;61.70;;;;;;5084031;27;46137;-75
2023/04/09 10:50:16;;;;;;;4.07;3.87;;;18.30;61.60;;;;;;5073766;27;45029;-78
2023/04/09 10:52:44;;;;;;;4.10;3.90;;;18.30;61.50;;;;;;5097200;27;43377;-77
2023/04/09 10:55:31;;;;;;;4.47;4.10;;;18.20;61.60;;;;;;5093897;27;43498;-77
2023/04/09 10:57:58;;;;;;;3.90;3.70;;;18.20;61.80;;;;;;5100583;27;43899;-76
2023/04/09 11:00:27;;;;;;;3.90;3.80;;;18.20;61.70;;;;;;5096158;27;43404;-76
2023/04/09 11:03:20;;;;;;;3.73;3.53;;;18.20;61.90;;;;;;5074765;27;43457;-77
2023/04/09 11:05:51;;;;;;;3.83;3.63;;;18.20;62.20;;;;;;5075629;27;43551;-77
2023/04/09 11:08:20;;;;;;;4.30;4.00;;;18.10;62.20;;;;;;5069705;28;45795;-77
2023/04/09 11:10:49;;;;;;;3.63;3.43;;;18.10;62.30;;;;;;5073979;28;44806;-77
2023/04/09 11:13:20;;;;;;;3.93;3.70;;;18.10;62.30;;;;;;5079270;27;43470;-77
2023/04/09 11:15:49;;;;;;;3.90;3.70;;;18.10;62.30;;;;;;5084247;27;43408;-76
2023/04/09 11:18:20;;;;;;;3.67;3.47;;;18.10;62.40;;;;;;5070537;27;46024;-78
2023/04/09 11:20:48;;;;;;;3.47;3.27;;;18.10;62.50;;;;;;5096684;27;43350;-77
2023/04/09 11:23:20;;;;;;;3.70;3.60;;;18.10;62.60;;;;;;5076550;27;43494;-77
2023/04/09 11:25:49;;;;;;;3.40;3.30;;;18.00;62.70;;;;;;5085683;27;43591;-77
2023/04/09 11:28:17;;;;;;;3.73;3.60;;;18.10;62.90;;;;;;5089447;27;43721;-77
2023/04/09 11:30:46;;;;;;;3.40;3.20;;;18.20;62.60;;;;;;5109881;27;43510;-76
2023/04/09 11:33:14;;;;;;;3.50;3.30;;;18.20;62.20;;;;;;5086409;27;43440;-76
2023/04/09 11:35:46;;;;;;;3.00;2.90;;;18.20;62.20;;;;;;5103341;27;43446;-77
2023/04/09 11:38:14;;;;;;;3.50;3.20;;;18.20;62.40;;;;;;5080750;27;46056;-77
2023/04/09 11:40:46;;;;;;;3.53;3.43;;;18.20;62.60;;;;;;5086166;27;44933;-77
2023/04/09 11:43:16;;;;;;;3.30;3.10;;;18.20;62.60;;;;;;5080975;27;43413;-77
2023/04/09 11:45:46;;;;;;;2.80;2.70;;;18.20;62.50;;;;;;5080315;27;44072;-77
2023/04/09 11:48:16;;;;;;;2.97;2.87;;;18.20;62.60;;;;;;5107487;27;43611;-77
2023/04/09 11:50:45;;;;;;;2.67;2.57;;;18.10;62.70;;;;;;5076651;28;44821;-76
2023/04/09 11:53:17;;;;;;;3.27;3.10;;;18.10;62.90;;;;;;5087575;28;43501;-77
2023/04/09 11:55:49;;;;;;;3.03;2.93;;;18.10;63.10;;;;;;5098600;27;43563;-77
2023/04/09 11:58:18;;;;;;;2.60;2.50;;;18.10;63.10;;;;;;5095392;27;43841;-77
2023/04/09 12:00:46;;;;;;;2.73;2.63;;;18.10;62.90;;;;;;5102560;27;43398;-78
2023/04/09 12:03:15;;;;;;;2.97;2.87;;;18.10;63.00;;;;;;5101560;27;43530;-76
2023/04/09 12:05:45;;;;;;;2.90;2.80;;;18.10;63.10;;;;;;5085145;27;43563;-76
2023/04/09 12:08:17;;;;;;;2.93;2.83;;;18.00;63.10;;;;;;5103083;27;43893;-78
2023/04/09 12:10:45;;;;;;;2.83;2.73;;;18.00;63.30;;;;;;5084448;28;45041;-78
2023/04/09 12:13:15;;;;;;;2.77;2.67;;;18.10;63.30;;;;;;5082245;27;43432;-77
2023/04/09 12:15:43;;;;;;;2.70;2.70;;;18.20;63.10;;;;;;5102191;27;43391;-77
2023/04/09 12:18:12;;;;;;;2.53;2.43;;;18.30;62.80;;;;;;5096766;27;43682;-77
2023/04/09 12:20:42;;;;;;;2.83;2.73;;;18.30;62.50;;;;;;5105709;27;43346;-77
2023/04/09 12:23:11;;;;;;;2.60;2.50;;;18.30;62.50;;;;;;5097397;27;43488;-78
2023/04/09 12:25:39;;;;;;;2.70;2.60;;;18.30;62.80;;;;;;5082643;27;43950;-78
2023/04/09 12:28:08;;;;;;;2.90;2.70;;;18.30;62.70;;;;;;5092239;27;45871;-77
2023/04/09 12:30:38;;;;;;;2.40;2.40;;;18.30;62.80;;;;;;5078727;27;45116;-78
2023/04/09 12:33:06;;;;;;;2.57;2.50;;;18.20;62.90;;;;;;5099850;27;43346;-77
2023/04/09 12:35:37;;;;;;;2.50;2.40;;;18.20;63.10;;;;;;5106127;27;43502;-76
2023/04/09 12:38:06;;;;;;;2.30;2.20;;;18.20;64.10;;;;;;5097740;27;43895;-77
2023/04/09 12:40:35;;;;;;;2.50;2.40;;;18.10;63.30;;;;;;5080163;27;44723;-77
2023/04/09 12:43:03;;;;;;;2.50;2.50;;;18.20;63.40;;;;;;5075209;27;43546;-77
2023/04/09 12:45:31;;;;;;;2.60;2.60;;;18.10;63.50;;;;;;5098448;27;43481;-77
2023/04/09 12:48:00;;;;;;;2.63;2.53;;;18.10;63.50;;;;;;5079184;27;45808;-77
2023/04/09 12:50:29;;;;;;;2.30;2.30;;;18.10;63.60;;;;;;5072738;27;45283;-77
2023/04/09 12:52:57;;;;;;;2.20;2.17;;;18.10;63.70;;;;;;5081213;27;43501;-77
2023/04/09 12:55:26;;;;;;;2.30;2.30;;;18.10;63.70;;;;;;5098446;27;44152;-78
2023/04/09 12:57:54;;;;;;;2.43;2.40;;;18.10;63.70;;;;;;5091047;27;46072;-76
2023/04/09 13:00:23;;;;;;;2.33;2.33;;;18.10;63.70;;;;;;5073266;27;45147;-76
2023/04/09 13:02:51;;;;;;;2.30;2.30;;;18.10;63.80;;;;;;5074599;27;43427;-76